createdAt,value
2023-03-21T00:03:18.202Z,73.70
2023-03-21T00:08:26.368Z,73.60
2023-03-21T00:13:32.599Z,73.60
2023-03-21T00:18:41.693Z,73.70
2023-03-21T00:23:47.290Z,73.70
2023-03-21T00:28:51.138Z,73.80
2023-03-21T00:33:57.770Z,73.70
2023-03-21T00:39:02.791Z,73.60
2023-03-21T00:44:06.492Z,73.70
2023-03-21T00:49:09.901Z,73.70
2023-03-21T00:54:14.934Z,73.80
2023-03-21T00:59:18.580Z,73.60
2023-03-21T01:04:26.422Z,73.70
2023-03-21T01:09:31.393Z,73.70
2023-03-21T01:14:34.840Z,74.50
2023-03-21T01:19:51.066Z,73.70
2023-03-21T01:25:08.758Z,73.60
2023-03-21T01:30:24.052Z,73.70
2023-03-21T01:35:30.036Z,73.80
2023-03-21T01:40:38.055Z,73.80
2023-03-21T01:46:51.560Z,73.90
2023-03-21T01:52:35.942Z,73.80
2023-03-21T01:58:02.331Z,73.70
2023-03-21T02:03:26.199Z,73.80
2023-03-21T02:08:44.047Z,73.90
2023-03-21T02:14:01.073Z,74.50
2023-03-21T02:20:43.246Z,73.70
2023-03-21T02:26:41.215Z,73.80
2023-03-21T02:32:09.324Z,73.90
2023-03-21T02:37:37.713Z,73.80
2023-03-21T02:43:01.266Z,73.70
2023-03-21T02:48:27.844Z,73.80
2023-03-21T02:53:41.582Z,73.90
2023-03-21T02:58:46.215Z,73.90
2023-03-21T03:03:49.766Z,73.70
2023-03-21T03:09:19.119Z,73.70
2023-03-21T03:15:03.026Z,73.80
2023-03-21T03:20:28.724Z,73.90
2023-03-21T03:25:43.657Z,73.80
2023-03-21T03:31:07.510Z,73.70
2023-03-21T03:36:31.074Z,73.80
2023-03-21T03:42:06.010Z,73.90
2023-03-21T03:47:32.355Z,73.90
2023-03-21T03:52:53.526Z,73.90
2023-03-21T03:58:03.192Z,73.90
2023-03-21T04:03:07.274Z,73.80
2023-03-21T04:08:10.922Z,73.90
2023-03-21T04:13:20.524Z,73.90
2023-03-21T04:18:39.122Z,73.90
2023-03-21T04:23:43.706Z,73.80
2023-03-21T04:28:48.939Z,73.80
2023-03-21T04:34:12.537Z,74.00
2023-03-21T04:39:21.981Z,73.90
2023-03-21T04:44:28.303Z,73.90
2023-03-21T04:49:31.990Z,73.80
2023-03-21T04:54:35.526Z,73.90
2023-03-21T04:59:41.286Z,73.90
2023-03-21T05:04:45.711Z,74.00
2023-03-21T05:09:49.124Z,74.00
2023-03-21T05:14:55.302Z,73.80
2023-03-21T05:19:58.857Z,73.80
2023-03-21T05:25:03.979Z,73.90
2023-03-21T05:30:21.341Z,73.90
2023-03-21T05:35:28.963Z,74.70
2023-03-21T05:40:35.742Z,73.80
2023-03-21T05:45:42.214Z,73.80
2023-03-21T05:50:46.453Z,73.90
2023-03-21T05:55:55.185Z,74.00
2023-03-21T06:01:17.173Z,73.90
2023-03-21T06:06:28.492Z,73.90
2023-03-21T06:11:38.672Z,73.90
2023-03-21T06:17:02.101Z,73.90
2023-03-21T06:22:06.752Z,74.00
2023-03-21T06:27:12.996Z,73.80
2023-03-21T06:32:28.718Z,73.80
2023-03-21T06:37:36.358Z,73.90
2023-03-21T06:42:40.355Z,73.90
2023-03-21T06:47:48.613Z,74.00
2023-03-21T06:53:04.936Z,74.00
2023-03-21T06:58:16.876Z,73.80
2023-03-21T07:03:23.542Z,73.90
2023-03-21T07:08:27.878Z,74.00
2023-03-21T07:13:32.086Z,74.00
2023-03-21T07:18:41.850Z,73.90
2023-03-21T07:23:45.442Z,73.80
2023-03-21T07:28:48.872Z,73.90
2023-03-21T07:33:53.849Z,73.90
2023-03-21T07:38:57.275Z,74.00
2023-03-21T07:44:01.180Z,74.00
2023-03-21T07:49:11.203Z,73.80
2023-03-21T07:54:14.706Z,73.90
2023-03-21T07:59:18.152Z,73.90
2023-03-21T08:04:22.913Z,73.90
2023-03-21T08:09:26.459Z,73.90
2023-03-21T08:14:29.862Z,73.80
2023-03-21T08:19:34.670Z,73.80
2023-03-21T08:24:38.103Z,73.90
2023-03-21T08:29:42.481Z,73.90
2023-03-21T08:34:47.564Z,73.90
2023-03-21T08:39:51.136Z,73.80
2023-03-21T08:44:54.544Z,73.80
2023-03-21T08:49:59.825Z,73.80
2023-03-21T08:55:03.755Z,73.90
2023-03-21T09:00:13.025Z,74.00
2023-03-21T09:05:18.473Z,73.70
2023-03-21T09:10:24.742Z,73.80
2023-03-21T09:15:29.816Z,73.90
2023-03-21T09:20:38.387Z,73.90
2023-03-21T09:25:42.335Z,73.80
2023-03-21T09:30:45.764Z,73.70
2023-03-21T09:35:52.193Z,73.90
2023-03-21T09:41:11.614Z,74.00
2023-03-21T09:46:23.933Z,74.00
2023-03-21T09:51:36.618Z,73.80
2023-03-21T09:56:44.692Z,73.80
2023-03-21T10:01:49.309Z,73.90
2023-03-21T10:06:59.596Z,73.90
2023-03-21T10:12:09.223Z,73.80
2023-03-21T10:17:30.366Z,73.70
2023-03-21T10:22:35.184Z,73.70
2023-03-21T10:27:39.716Z,73.80
2023-03-21T10:32:43.173Z,73.80
2023-03-21T10:37:48.514Z,74.50
2023-03-21T10:42:53.031Z,73.70
2023-03-21T10:47:58.158Z,73.70
2023-03-21T10:53:03.755Z,73.70
2023-03-21T10:58:11.245Z,73.80
2023-03-21T11:03:24.658Z,73.60
2023-03-21T11:08:29.743Z,73.60
2023-03-21T11:13:41.756Z,73.60
2023-03-21T11:18:52.282Z,73.60
2023-03-21T11:23:58.416Z,73.60
2023-03-21T11:29:13.480Z,74.20
2023-03-21T11:34:30.072Z,73.40
2023-03-21T11:39:40.266Z,73.50
2023-03-21T11:44:45.779Z,73.60
2023-03-21T11:49:51.323Z,73.50
2023-03-21T11:55:32.626Z,73.40
2023-03-21T12:00:44.467Z,73.50
2023-03-21T12:05:56.097Z,73.50
2023-03-21T12:11:14.734Z,73.60
2023-03-21T12:16:35.689Z,73.40
2023-03-21T12:21:55.146Z,73.40
2023-03-21T12:27:09.897Z,73.40
2023-03-21T12:32:32.858Z,73.40
2023-03-21T12:37:46.912Z,73.30
2023-03-21T12:43:25.780Z,73.20
2023-03-21T12:48:41.624Z,73.40
2023-03-21T12:53:56.781Z,73.30
2023-03-21T12:59:13.780Z,73.30
2023-03-21T13:04:40.167Z,73.30
2023-03-21T13:09:43.651Z,73.10
2023-03-21T13:15:12.459Z,73.10
2023-03-21T13:20:27.632Z,73.20
2023-03-21T13:25:34.110Z,73.30
2023-03-21T13:30:39.251Z,73.20
2023-03-21T13:35:46.326Z,73.10
2023-03-21T13:40:52.391Z,73.20
2023-03-21T13:45:57.182Z,73.30
2023-03-21T13:51:03.142Z,73.30
2023-03-21T13:56:25.125Z,73.10
2023-03-21T14:01:36.868Z,73.20
2023-03-21T14:06:50.751Z,73.30
2023-03-21T14:12:03.740Z,73.40
2023-03-21T14:17:16.447Z,73.40
2023-03-21T14:22:20.480Z,73.40
2023-03-21T14:27:24.443Z,73.20
2023-03-21T14:32:31.952Z,73.10
2023-03-21T14:37:42.637Z,73.70
2023-03-21T14:42:52.084Z,73.40
2023-03-21T14:48:05.685Z,73.40
2023-03-21T14:53:16.027Z,73.30
2023-03-21T14:58:20.141Z,73.40
2023-03-21T15:03:27.528Z,73.40
2023-03-21T15:08:31.469Z,73.40
2023-03-21T15:13:41.462Z,73.30
2023-03-21T15:18:47.624Z,73.40
2023-03-21T15:23:54.885Z,73.40
2023-03-21T15:29:00.757Z,73.40
2023-03-21T15:34:06.631Z,73.30
2023-03-21T15:39:15.887Z,73.30
2023-03-21T15:44:23.874Z,73.30
2023-03-21T15:49:32.326Z,73.40
2023-03-21T15:54:44.678Z,73.30
2023-03-21T15:59:48.461Z,73.30
2023-03-21T16:05:03.331Z,73.30
2023-03-21T16:10:27.913Z,73.40
2023-03-21T16:15:32.217Z,73.50
2023-03-21T16:20:42.492Z,73.40
2023-03-21T16:25:47.000Z,73.40
2023-03-21T16:30:50.733Z,73.50
2023-03-21T16:35:57.644Z,73.50
2023-03-21T16:41:04.275Z,73.50
2023-03-21T16:46:08.237Z,73.30
2023-03-21T16:51:17.124Z,73.30
2023-03-21T16:56:26.024Z,73.40
2023-03-21T17:01:30.122Z,73.40
2023-03-21T17:06:40.774Z,73.30
2023-03-21T17:11:45.187Z,73.40
2023-03-21T17:16:49.505Z,73.50
2023-03-21T17:21:55.186Z,73.60
2023-03-21T17:26:59.300Z,73.60
2023-03-21T17:32:03.021Z,73.60
2023-03-21T17:37:13.221Z,73.50
2023-03-21T17:42:18.293Z,73.50
2023-03-21T17:47:25.454Z,73.50
2023-03-21T17:52:30.243Z,73.60
2023-03-21T17:57:33.745Z,74.40
2023-03-21T18:02:37.376Z,73.50
2023-03-21T18:13:08.404Z,73.60
2023-03-21T18:18:12.263Z,73.70
2023-03-21T18:23:19.258Z,73.70
2023-03-21T18:28:23.218Z,73.70
2023-03-21T18:33:27.461Z,73.60
2023-03-21T18:38:32.440Z,73.50
2023-03-21T18:49:19.960Z,73.70
2023-03-21T18:54:24.979Z,73.70
2023-03-21T18:59:28.448Z,73.60
2023-03-21T19:04:33.157Z,73.70
2023-03-21T19:10:01.477Z,73.70
2023-03-21T19:15:01.754Z,73.90
2023-03-21T19:20:06.750Z,73.90
2023-03-21T19:25:13.324Z,73.70
2023-03-21T19:30:17.441Z,73.70
2023-03-21T19:35:21.758Z,73.70
2023-03-21T19:40:26.701Z,73.80
2023-03-21T19:45:30.226Z,73.90
2023-03-21T19:51:03.467Z,73.70
2023-03-21T19:56:03.537Z,73.70
2023-03-21T20:01:07.666Z,73.80
2023-03-21T20:06:12.942Z,73.80
2023-03-21T20:11:18.037Z,73.90
2023-03-21T20:16:21.761Z,73.90
2023-03-21T20:21:26.026Z,73.70
2023-03-21T20:26:31.304Z,73.70
2023-03-21T20:31:36.547Z,73.80
2023-03-21T20:36:41.360Z,73.90
2023-03-21T20:41:48.901Z,73.80
2023-03-21T20:46:53.114Z,73.70
2023-03-21T20:52:54.347Z,73.80
2023-03-21T20:57:34.335Z,73.90
2023-03-21T21:02:38.285Z,74.00
2023-03-21T21:07:43.106Z,73.90
2023-03-21T21:12:47.875Z,73.70
2023-03-21T21:18:05.434Z,73.80
2023-03-21T21:23:09.914Z,73.80
2023-03-21T21:28:14.872Z,74.00
2023-03-21T21:33:20.916Z,73.80
2023-03-21T21:38:25.001Z,73.80
2023-03-21T21:43:30.719Z,73.90
2023-03-21T21:48:34.120Z,74.00
2023-03-21T21:53:38.895Z,74.00
2023-03-21T21:58:47.047Z,74.00
2023-03-21T22:03:51.668Z,74.00
2023-03-21T22:08:56.853Z,73.70
2023-03-21T22:14:01.738Z,73.70
2023-03-21T22:19:05.333Z,73.90
2023-03-21T22:24:09.237Z,73.90
2023-03-21T22:29:14.198Z,74.00
2023-03-21T22:34:17.596Z,73.80
2023-03-21T22:39:26.095Z,73.90
2023-03-21T22:44:34.883Z,74.00
2023-03-21T22:49:39.833Z,74.10
2023-03-21T22:54:43.249Z,74.10
2023-03-21T22:59:48.301Z,74.10
2023-03-21T23:04:51.716Z,73.90
2023-03-21T23:09:55.810Z,73.70
2023-03-21T23:15:02.256Z,73.80
2023-03-21T23:20:08.396Z,73.90
2023-03-21T23:25:12.692Z,74.00
2023-03-21T23:30:17.997Z,73.90
2023-03-21T23:35:21.469Z,73.90
2023-03-21T23:40:24.923Z,74.00
2023-03-21T23:45:29.678Z,74.10
2023-03-21T23:50:33.738Z,74.10
2023-03-21T23:55:40.202Z,74.20
